Aviation Digital Data Service (ADDS)

Output produced by METARs form (0814 UTC 20 March 2019)
found at http://www.aviationweather.gov/metar/data/
 
METAR text: WBKK 200800Z 10006KT 060V120 9999 -RA FEW014 SCT140 BKN270 27/25 Q1008 NOSIG
Conditions at: WBKK (KOTA KINABALU IN, MY) observed 0800 UTC 20 March 2019
Temperature: 27.0°C (81°F)
Dewpoint: 25.0°C (77°F) [RH = 89%]
Pressure (altimeter): 29.76 inches Hg (1008.0 mb)
Winds: from the E (100 degrees) at 7 MPH (6 knots; 3.1 m/s)
Visibility: 6 or more miles (10+ km)
Ceiling: 27000 feet AGL
Clouds: few clouds at 1400 feet AGL
scattered clouds at 14000 feet AGL
broken clouds at 27000 feet AGL
Weather: -RA  (light rain)

METAR text: WBKK 200730Z 10007KT 9999 -RA FEW014 SCT140 BKN270 27/25 Q1008 NOSIG
Conditions at: WBKK (KOTA KINABALU IN, MY) observed 0730 UTC 20 March 2019
Temperature: 27.0°C (81°F)
Dewpoint: 25.0°C (77°F) [RH = 89%]
Pressure (altimeter): 29.76 inches Hg (1008.0 mb)
Winds: from the E (100 degrees) at 8 MPH (7 knots; 3.6 m/s)
Visibility: 6 or more miles (10+ km)
Ceiling: 27000 feet AGL
Clouds: few clouds at 1400 feet AGL
scattered clouds at 14000 feet AGL
broken clouds at 27000 feet AGL
Weather: -RA  (light rain)

METAR text: WBKK 200700Z 09008KT 9999 FEW014 SCT140 BKN270 28/25 Q1008 TEMPO 8000 -RA
Conditions at: WBKK (KOTA KINABALU IN, MY) observed 0700 UTC 20 March 2019
Temperature: 28.0°C (82°F)
Dewpoint: 25.0°C (77°F) [RH = 84%]
Pressure (altimeter): 29.76 inches Hg (1008.0 mb)
Winds: from the E (90 degrees) at 9 MPH (8 knots; 4.1 m/s)
Visibility: 6 or more miles (10+ km)
Ceiling: 27000 feet AGL
Clouds: few clouds at 1400 feet AGL
scattered clouds at 14000 feet AGL
broken clouds at 27000 feet AGL
Weather: no significant weather observed at this time

METAR text: WBKK 200630Z 06010KT 020V100 9999 FEW014 FEW016CB SCT140 BKN270 28/25 Q1008 TEMPO 6000 -TSRA
Conditions at: WBKK (KOTA KINABALU IN, MY) observed 0630 UTC 20 March 2019
Temperature: 28.0°C (82°F)
Dewpoint: 25.0°C (77°F) [RH = 84%]
Pressure (altimeter): 29.76 inches Hg (1008.0 mb)
Winds: from the ENE (60 degrees) at 12 MPH (10 knots; 5.1 m/s)
Visibility: 6 or more miles (10+ km)
Ceiling: 27000 feet AGL
Clouds: few clouds at 1400 feet AGL
few clouds at 1600 feet AGL
scattered clouds at 14000 feet AGL
broken clouds at 27000 feet AGL
Weather: no significant weather observed at this time

METAR text: WBKK 200600Z 36006KT 320V060 9999 FEW014 FEW016CB SCT140 BKN270 29/25 Q1008 TEMPO 4000 TSRA
Conditions at: WBKK (KOTA KINABALU IN, MY) observed 0600 UTC 20 March 2019
Temperature: 29.0°C (84°F)
Dewpoint: 25.0°C (77°F) [RH = 79%]
Pressure (altimeter): 29.76 inches Hg (1008.0 mb)
Winds: from the N (360 degrees) at 7 MPH (6 knots; 3.1 m/s)
Visibility: 6 or more miles (10+ km)
Ceiling: 27000 feet AGL
Clouds: few clouds at 1400 feet AGL
few clouds at 1600 feet AGL
scattered clouds at 14000 feet AGL
broken clouds at 27000 feet AGL
Weather: no significant weather observed at this time

METAR text: WBKK 200530Z 33006KT 270V020 9999 FEW014 FEW016CB SCT140 BKN270 30/26 Q1009 NOSIG
Conditions at: WBKK (KOTA KINABALU IN, MY) observed 0530 UTC 20 March 2019
Temperature: 30.0°C (86°F)
Dewpoint: 26.0°C (79°F) [RH = 79%]
Pressure (altimeter): 29.79 inches Hg (1009.0 mb)
Winds: from the NNW (330 degrees) at 7 MPH (6 knots; 3.1 m/s)
Visibility: 6 or more miles (10+ km)
Ceiling: 27000 feet AGL
Clouds: few clouds at 1400 feet AGL
few clouds at 1600 feet AGL
scattered clouds at 14000 feet AGL
broken clouds at 27000 feet AGL
Weather: no significant weather observed at this time

METAR text: WBKK 200500Z 30005KT 250V360 9999 FEW014 FEW016CB SCT140 BKN270 32/26 Q1009 NOSIG
Conditions at: WBKK (KOTA KINABALU IN, MY) observed 0500 UTC 20 March 2019
Temperature: 32.0°C (90°F)
Dewpoint: 26.0°C (79°F) [RH = 71%]
Pressure (altimeter): 29.79 inches Hg (1009.0 mb)
Winds: from the WNW (300 degrees) at 6 MPH (5 knots; 2.6 m/s)
Visibility: 6 or more miles (10+ km)
Ceiling: 27000 feet AGL
Clouds: few clouds at 1400 feet AGL
few clouds at 1600 feet AGL
scattered clouds at 14000 feet AGL
broken clouds at 27000 feet AGL
Weather: no significant weather observed at this time

METAR text: WBKK 200430Z 28006KT 230V310 9999 FEW014 FEW016CB SCT140 BKN270 32/26 Q1009 NOSIG
Conditions at: WBKK (KOTA KINABALU IN, MY) observed 0430 UTC 20 March 2019
Temperature: 32.0°C (90°F)
Dewpoint: 26.0°C (79°F) [RH = 71%]
Pressure (altimeter): 29.79 inches Hg (1009.0 mb)
Winds: from the W (280 degrees) at 7 MPH (6 knots; 3.1 m/s)
Visibility: 6 or more miles (10+ km)
Ceiling: 27000 feet AGL
Clouds: few clouds at 1400 feet AGL
few clouds at 1600 feet AGL
scattered clouds at 14000 feet AGL
broken clouds at 27000 feet AGL
Weather: no significant weather observed at this time

METAR text: WBKK 200400Z 27005KT 230V300 9999 FEW014 SCT140 BKN280 31/26 Q1010 NOSIG
Conditions at: WBKK (KOTA KINABALU IN, MY) observed 0400 UTC 20 March 2019
Temperature: 31.0°C (88°F)
Dewpoint: 26.0°C (79°F) [RH = 75%]
Pressure (altimeter): 29.82 inches Hg (1010.0 mb)
Winds: from the W (270 degrees) at 6 MPH (5 knots; 2.6 m/s)
Visibility: 6 or more miles (10+ km)
Ceiling: 28000 feet AGL
Clouds: few clouds at 1400 feet AGL
scattered clouds at 14000 feet AGL
broken clouds at 28000 feet AGL
Weather: no significant weather observed at this time

METAR text: WBKK 200330Z 26005KT 170V320 9999 FEW014 SCT140 BKN280 31/25 Q1010 NOSIG
Conditions at: WBKK (KOTA KINABALU IN, MY) observed 0330 UTC 20 March 2019
Temperature: 31.0°C (88°F)
Dewpoint: 25.0°C (77°F) [RH = 71%]
Pressure (altimeter): 29.82 inches Hg (1010.0 mb)
Winds: from the W (260 degrees) at 6 MPH (5 knots; 2.6 m/s)
Visibility: 6 or more miles (10+ km)
Ceiling: 28000 feet AGL
Clouds: few clouds at 1400 feet AGL
scattered clouds at 14000 feet AGL
broken clouds at 28000 feet AGL
Weather: no significant weather observed at this time

METAR text: WBKK 200300Z 27006KT 230V310 9999 FEW014 SCT140 BKN280 31/25 Q1011 NOSIG
Conditions at: WBKK (KOTA KINABALU IN, MY) observed 0300 UTC 20 March 2019
Temperature: 31.0°C (88°F)
Dewpoint: 25.0°C (77°F) [RH = 71%]
Pressure (altimeter): 29.85 inches Hg (1011.0 mb)
Winds: from the W (270 degrees) at 7 MPH (6 knots; 3.1 m/s)
Visibility: 6 or more miles (10+ km)
Ceiling: 28000 feet AGL
Clouds: few clouds at 1400 feet AGL
scattered clouds at 14000 feet AGL
broken clouds at 28000 feet AGL
Weather: no significant weather observed at this time

METAR text: WBKK 200230Z 27005KT 240V320 9999 FEW014 FEW017CB SCT140 BKN280 30/25 Q1011 NOSIG
Conditions at: WBKK (KOTA KINABALU IN, MY) observed 0230 UTC 20 March 2019
Temperature: 30.0°C (86°F)
Dewpoint: 25.0°C (77°F) [RH = 75%]
Pressure (altimeter): 29.85 inches Hg (1011.0 mb)
Winds: from the W (270 degrees) at 6 MPH (5 knots; 2.6 m/s)
Visibility: 6 or more miles (10+ km)
Ceiling: 28000 feet AGL
Clouds: few clouds at 1400 feet AGL
few clouds at 1700 feet AGL
scattered clouds at 14000 feet AGL
broken clouds at 28000 feet AGL
Weather: no significant weather observed at this time

METAR text: WBKK 200200Z 30003KT 240V350 9999 FEW014 FEW017CB SCT140 BKN280 30/25 Q1011 NOSIG
Conditions at: WBKK (KOTA KINABALU IN, MY) observed 0200 UTC 20 March 2019
Temperature: 30.0°C (86°F)
Dewpoint: 25.0°C (77°F) [RH = 75%]
Pressure (altimeter): 29.85 inches Hg (1011.0 mb)
Winds: from the WNW (300 degrees) at 3 MPH (3 knots; 1.5 m/s)
Visibility: 6 or more miles (10+ km)
Ceiling: 28000 feet AGL
Clouds: few clouds at 1400 feet AGL
few clouds at 1700 feet AGL
scattered clouds at 14000 feet AGL
broken clouds at 28000 feet AGL
Weather: no significant weather observed at this time

METAR text: WBKK 200130Z 29004KT 240V330 9999 FEW015 SCT140 BKN280 30/24 Q1011 NOSIG
Conditions at: WBKK (KOTA KINABALU IN, MY) observed 0130 UTC 20 March 2019
Temperature: 30.0°C (86°F)
Dewpoint: 24.0°C (75°F) [RH = 70%]
Pressure (altimeter): 29.85 inches Hg (1011.0 mb)
Winds: from the WNW (290 degrees) at 5 MPH (4 knots; 2.1 m/s)
Visibility: 6 or more miles (10+ km)
Ceiling: 28000 feet AGL
Clouds: few clouds at 1500 feet AGL
scattered clouds at 14000 feet AGL
broken clouds at 28000 feet AGL
Weather: no significant weather observed at this time

METAR text: WBKK 200100Z VRB02KT 9999 FEW015 SCT140 BKN280 29/24 Q1011 NOSIG
Conditions at: WBKK (KOTA KINABALU IN, MY) observed 0100 UTC 20 March 2019
Temperature: 29.0°C (84°F)
Dewpoint: 24.0°C (75°F) [RH = 74%]
Pressure (altimeter): 29.85 inches Hg (1011.0 mb)
Winds: variable direction winds at 2 MPH (2 knots; 1.0 m/s)
Visibility: 6 or more miles (10+ km)
Ceiling: 28000 feet AGL
Clouds: few clouds at 1500 feet AGL
scattered clouds at 14000 feet AGL
broken clouds at 28000 feet AGL
Weather: no significant weather observed at this time

METAR text: WBKK 200030Z 00000KT 9999 FEW015 BKN280 28/24 Q1011 NOSIG
Conditions at: WBKK (KOTA KINABALU IN, MY) observed 0030 UTC 20 March 2019
Temperature: 28.0°C (82°F)
Dewpoint: 24.0°C (75°F) [RH = 79%]
Pressure (altimeter): 29.85 inches Hg (1011.0 mb)
Winds: calm
Visibility: 6 or more miles (10+ km)
Ceiling: 28000 feet AGL
Clouds: few clouds at 1500 feet AGL
broken clouds at 28000 feet AGL
Weather: no significant weather observed at this time

METAR text: WBKK 200000Z 12004KT 070V160 9999 FEW015 BKN280 27/23 Q1011 NOSIG
Conditions at: WBKK (KOTA KINABALU IN, MY) observed 0000 UTC 20 March 2019
Temperature: 27.0°C (81°F)
Dewpoint: 23.0°C (73°F) [RH = 79%]
Pressure (altimeter): 29.85 inches Hg (1011.0 mb)
Winds: from the ESE (120 degrees) at 5 MPH (4 knots; 2.1 m/s)
Visibility: 6 or more miles (10+ km)
Ceiling: 28000 feet AGL
Clouds: few clouds at 1500 feet AGL
broken clouds at 28000 feet AGL
Weather: no significant weather observed at this time

METAR text: WBKK 192330Z 11004KT 070V130 9999 FEW015 BKN280 26/23 Q1010 NOSIG
Conditions at: WBKK (KOTA KINABALU IN, MY) observed 2330 UTC 19 March 2019
Temperature: 26.0°C (79°F)
Dewpoint: 23.0°C (73°F) [RH = 84%]
Pressure (altimeter): 29.82 inches Hg (1010.0 mb)
Winds: from the ESE (110 degrees) at 5 MPH (4 knots; 2.1 m/s)
Visibility: 6 or more miles (10+ km)
Ceiling: 28000 feet AGL
Clouds: few clouds at 1500 feet AGL
broken clouds at 28000 feet AGL
Weather: no significant weather observed at this time

METAR text: WBKK 192300Z 12005KT 9999 FEW015 BKN280 25/23 Q1010 NOSIG
Conditions at: WBKK (KOTA KINABALU IN, MY) observed 2300 UTC 19 March 2019
Temperature: 25.0°C (77°F)
Dewpoint: 23.0°C (73°F) [RH = 89%]
Pressure (altimeter): 29.82 inches Hg (1010.0 mb)
Winds: from the ESE (120 degrees) at 6 MPH (5 knots; 2.6 m/s)
Visibility: 6 or more miles (10+ km)
Ceiling: 28000 feet AGL
Clouds: few clouds at 1500 feet AGL
broken clouds at 28000 feet AGL
Weather: no significant weather observed at this time

METAR text: WBKK 192230Z 13003KT 100V160 9999 FEW015 SCT140 BKN280 25/23 Q1010 NOSIG
Conditions at: WBKK (KOTA KINABALU IN, MY) observed 2230 UTC 19 March 2019
Temperature: 25.0°C (77°F)
Dewpoint: 23.0°C (73°F) [RH = 89%]
Pressure (altimeter): 29.82 inches Hg (1010.0 mb)
Winds: from the SE (130 degrees) at 3 MPH (3 knots; 1.5 m/s)
Visibility: 6 or more miles (10+ km)
Ceiling: 28000 feet AGL
Clouds: few clouds at 1500 feet AGL
scattered clouds at 14000 feet AGL
broken clouds at 28000 feet AGL
Weather: no significant weather observed at this time

METAR text: WBKK 192200Z 11003KT 080V160 9999 FEW015 SCT140 BKN280 25/23 Q1009 NOSIG
Conditions at: WBKK (KOTA KINABALU IN, MY) observed 2200 UTC 19 March 2019
Temperature: 25.0°C (77°F)
Dewpoint: 23.0°C (73°F) [RH = 89%]
Pressure (altimeter): 29.79 inches Hg (1009.0 mb)
Winds: from the ESE (110 degrees) at 3 MPH (3 knots; 1.5 m/s)
Visibility: 6 or more miles (10+ km)
Ceiling: 28000 feet AGL
Clouds: few clouds at 1500 feet AGL
scattered clouds at 14000 feet AGL
broken clouds at 28000 feet AGL
Weather: no significant weather observed at this time

METAR text: WBKK 192130Z VRB03KT 9999 FEW014 SCT140 BKN280 24/23 Q1009 NOSIG
Conditions at: WBKK (KOTA KINABALU IN, MY) observed 2130 UTC 19 March 2019
Temperature: 24.0°C (75°F)
Dewpoint: 23.0°C (73°F) [RH = 94%]
Pressure (altimeter): 29.79 inches Hg (1009.0 mb)
Winds: variable direction winds at 3 MPH (3 knots; 1.5 m/s)
Visibility: 6 or more miles (10+ km)
Ceiling: 28000 feet AGL
Clouds: few clouds at 1400 feet AGL
scattered clouds at 14000 feet AGL
broken clouds at 28000 feet AGL
Weather: no significant weather observed at this time

METAR text: WBKK 192100Z VRB02KT 9999 FEW014 SCT140 BKN280 24/23 Q1009 NOSIG
Conditions at: WBKK (KOTA KINABALU IN, MY) observed 2100 UTC 19 March 2019
Temperature: 24.0°C (75°F)
Dewpoint: 23.0°C (73°F) [RH = 94%]
Pressure (altimeter): 29.79 inches Hg (1009.0 mb)
Winds: variable direction winds at 2 MPH (2 knots; 1.0 m/s)
Visibility: 6 or more miles (10+ km)
Ceiling: 28000 feet AGL
Clouds: few clouds at 1400 feet AGL
scattered clouds at 14000 feet AGL
broken clouds at 28000 feet AGL
Weather: no significant weather observed at this time

METAR text: WBKK 192030Z VRB02KT 9999 FEW014 SCT140 BKN280 24/23 Q1008 NOSIG
Conditions at: WBKK (KOTA KINABALU IN, MY) observed 2030 UTC 19 March 2019
Temperature: 24.0°C (75°F)
Dewpoint: 23.0°C (73°F) [RH = 94%]
Pressure (altimeter): 29.76 inches Hg (1008.0 mb)
Winds: variable direction winds at 2 MPH (2 knots; 1.0 m/s)
Visibility: 6 or more miles (10+ km)
Ceiling: 28000 feet AGL
Clouds: few clouds at 1400 feet AGL
scattered clouds at 14000 feet AGL
broken clouds at 28000 feet AGL
Weather: no significant weather observed at this time

METAR text: WBKK 192000Z 15003KT 120V180 9999 FEW014 SCT140 BKN280 24/23 Q1008 NOSIG
Conditions at: WBKK (KOTA KINABALU IN, MY) observed 2000 UTC 19 March 2019
Temperature: 24.0°C (75°F)
Dewpoint: 23.0°C (73°F) [RH = 94%]
Pressure (altimeter): 29.76 inches Hg (1008.0 mb)
Winds: from the SSE (150 degrees) at 3 MPH (3 knots; 1.5 m/s)
Visibility: 6 or more miles (10+ km)
Ceiling: 28000 feet AGL
Clouds: few clouds at 1400 feet AGL
scattered clouds at 14000 feet AGL
broken clouds at 28000 feet AGL
Weather: no significant weather observed at this time

METAR text: WBKK 191930Z 12003KT 100V160 9999 FEW014 SCT140 BKN280 24/23 Q1008 NOSIG
Conditions at: WBKK (KOTA KINABALU IN, MY) observed 1930 UTC 19 March 2019
Temperature: 24.0°C (75°F)
Dewpoint: 23.0°C (73°F) [RH = 94%]
Pressure (altimeter): 29.76 inches Hg (1008.0 mb)
Winds: from the ESE (120 degrees) at 3 MPH (3 knots; 1.5 m/s)
Visibility: 6 or more miles (10+ km)
Ceiling: 28000 feet AGL
Clouds: few clouds at 1400 feet AGL
scattered clouds at 14000 feet AGL
broken clouds at 28000 feet AGL
Weather: no significant weather observed at this time

METAR text: WBKK 191900Z VRB02KT 9999 FEW014 SCT140 BKN280 25/23 Q1008 NOSIG
Conditions at: WBKK (KOTA KINABALU IN, MY) observed 1900 UTC 19 March 2019
Temperature: 25.0°C (77°F)
Dewpoint: 23.0°C (73°F) [RH = 89%]
Pressure (altimeter): 29.76 inches Hg (1008.0 mb)
Winds: variable direction winds at 2 MPH (2 knots; 1.0 m/s)
Visibility: 6 or more miles (10+ km)
Ceiling: 28000 feet AGL
Clouds: few clouds at 1400 feet AGL
scattered clouds at 14000 feet AGL
broken clouds at 28000 feet AGL
Weather: no significant weather observed at this time

METAR text: WBKK 191830Z 12003KT 9999 FEW014 SCT140 BKN270 25/23 Q1008 NOSIG
Conditions at: WBKK (KOTA KINABALU IN, MY) observed 1830 UTC 19 March 2019
Temperature: 25.0°C (77°F)
Dewpoint: 23.0°C (73°F) [RH = 89%]
Pressure (altimeter): 29.76 inches Hg (1008.0 mb)
Winds: from the ESE (120 degrees) at 3 MPH (3 knots; 1.5 m/s)
Visibility: 6 or more miles (10+ km)
Ceiling: 27000 feet AGL
Clouds: few clouds at 1400 feet AGL
scattered clouds at 14000 feet AGL
broken clouds at 27000 feet AGL
Weather: no significant weather observed at this time

METAR text: WBKK 191800Z 11004KT 070V140 9999 FEW014 SCT140 BKN270 25/24 Q1008 NOSIG
Conditions at: WBKK (KOTA KINABALU IN, MY) observed 1800 UTC 19 March 2019
Temperature: 25.0°C (77°F)
Dewpoint: 24.0°C (75°F) [RH = 94%]
Pressure (altimeter): 29.76 inches Hg (1008.0 mb)
Winds: from the ESE (110 degrees) at 5 MPH (4 knots; 2.1 m/s)
Visibility: 6 or more miles (10+ km)
Ceiling: 27000 feet AGL
Clouds: few clouds at 1400 feet AGL
scattered clouds at 14000 feet AGL
broken clouds at 27000 feet AGL
Weather: no significant weather observed at this time

METAR text: WBKK 191730Z VRB03KT 9999 FEW014 SCT140 BKN270 25/24 Q1009 NOSIG
Conditions at: WBKK (KOTA KINABALU IN, MY) observed 1730 UTC 19 March 2019
Temperature: 25.0°C (77°F)
Dewpoint: 24.0°C (75°F) [RH = 94%]
Pressure (altimeter): 29.79 inches Hg (1009.0 mb)
Winds: variable direction winds at 3 MPH (3 knots; 1.5 m/s)
Visibility: 6 or more miles (10+ km)
Ceiling: 27000 feet AGL
Clouds: few clouds at 1400 feet AGL
scattered clouds at 14000 feet AGL
broken clouds at 27000 feet AGL
Weather: no significant weather observed at this time

METAR text: WBKK 191700Z 07003KT 030V100 9999 FEW014 SCT140 BKN270 26/25 Q1009 NOSIG
Conditions at: WBKK (KOTA KINABALU IN, MY) observed 1700 UTC 19 March 2019
Temperature: 26.0°C (79°F)
Dewpoint: 25.0°C (77°F) [RH = 94%]
Pressure (altimeter): 29.79 inches Hg (1009.0 mb)
Winds: from the ENE (70 degrees) at 3 MPH (3 knots; 1.5 m/s)
Visibility: 6 or more miles (10+ km)
Ceiling: 27000 feet AGL
Clouds: few clouds at 1400 feet AGL
scattered clouds at 14000 feet AGL
broken clouds at 27000 feet AGL
Weather: no significant weather observed at this time

METAR text: WBKK 191630Z 05005KT 020V100 9999 FEW014 SCT140 BKN270 26/24 Q1010 NOSIG
Conditions at: WBKK (KOTA KINABALU IN, MY) observed 1630 UTC 19 March 2019
Temperature: 26.0°C (79°F)
Dewpoint: 24.0°C (75°F) [RH = 89%]
Pressure (altimeter): 29.82 inches Hg (1010.0 mb)
Winds: from the NE (50 degrees) at 6 MPH (5 knots; 2.6 m/s)
Visibility: 6 or more miles (10+ km)
Ceiling: 27000 feet AGL
Clouds: few clouds at 1400 feet AGL
scattered clouds at 14000 feet AGL
broken clouds at 27000 feet AGL
Weather: no significant weather observed at this time

METAR text: WBKK 191600Z 07003KT 9999 FEW014 SCT140 BKN270 26/24 Q1010 NOSIG
Conditions at: WBKK (KOTA KINABALU IN, MY) observed 1600 UTC 19 March 2019
Temperature: 26.0°C (79°F)
Dewpoint: 24.0°C (75°F) [RH = 89%]
Pressure (altimeter): 29.82 inches Hg (1010.0 mb)
Winds: from the ENE (70 degrees) at 3 MPH (3 knots; 1.5 m/s)
Visibility: 6 or more miles (10+ km)
Ceiling: 27000 feet AGL
Clouds: few clouds at 1400 feet AGL
scattered clouds at 14000 feet AGL
broken clouds at 27000 feet AGL
Weather: no significant weather observed at this time

METAR text: WBKK 191530Z 09003KT 060V120 9999 FEW014 SCT140 BKN270 26/24 Q1010 NOSIG
Conditions at: WBKK (KOTA KINABALU IN, MY) observed 1530 UTC 19 March 2019
Temperature: 26.0°C (79°F)
Dewpoint: 24.0°C (75°F) [RH = 89%]
Pressure (altimeter): 29.82 inches Hg (1010.0 mb)
Winds: from the E (90 degrees) at 3 MPH (3 knots; 1.5 m/s)
Visibility: 6 or more miles (10+ km)
Ceiling: 27000 feet AGL
Clouds: few clouds at 1400 feet AGL
scattered clouds at 14000 feet AGL
broken clouds at 27000 feet AGL
Weather: no significant weather observed at this time

METAR text: WBKK 191500Z 09004KT 9999 FEW014 SCT140 BKN270 26/24 Q1010 NOSIG
Conditions at: WBKK (KOTA KINABALU IN, MY) observed 1500 UTC 19 March 2019
Temperature: 26.0°C (79°F)
Dewpoint: 24.0°C (75°F) [RH = 89%]
Pressure (altimeter): 29.82 inches Hg (1010.0 mb)
Winds: from the E (90 degrees) at 5 MPH (4 knots; 2.1 m/s)
Visibility: 6 or more miles (10+ km)
Ceiling: 27000 feet AGL
Clouds: few clouds at 1400 feet AGL
scattered clouds at 14000 feet AGL
broken clouds at 27000 feet AGL
Weather: no significant weather observed at this time

METAR text: WBKK 191430Z VRB02KT 9999 FEW014 SCT140 BKN270 26/24 Q1011 NOSIG
Conditions at: WBKK (KOTA KINABALU IN, MY) observed 1430 UTC 19 March 2019
Temperature: 26.0°C (79°F)
Dewpoint: 24.0°C (75°F) [RH = 89%]
Pressure (altimeter): 29.85 inches Hg (1011.0 mb)
Winds: variable direction winds at 2 MPH (2 knots; 1.0 m/s)
Visibility: 6 or more miles (10+ km)
Ceiling: 27000 feet AGL
Clouds: few clouds at 1400 feet AGL
scattered clouds at 14000 feet AGL
broken clouds at 27000 feet AGL
Weather: no significant weather observed at this time

METAR text: WBKK 191400Z 13003KT 9999 FEW014 SCT140 BKN270 26/25 Q1011 NOSIG
Conditions at: WBKK (KOTA KINABALU IN, MY) observed 1400 UTC 19 March 2019
Temperature: 26.0°C (79°F)
Dewpoint: 25.0°C (77°F) [RH = 94%]
Pressure (altimeter): 29.85 inches Hg (1011.0 mb)
Winds: from the SE (130 degrees) at 3 MPH (3 knots; 1.5 m/s)
Visibility: 6 or more miles (10+ km)
Ceiling: 27000 feet AGL
Clouds: few clouds at 1400 feet AGL
scattered clouds at 14000 feet AGL
broken clouds at 27000 feet AGL
Weather: no significant weather observed at this time

METAR text: WBKK 191330Z 13004KT 100V160 9999 FEW014 SCT040 BKN270 26/25 Q1011 NOSIG
Conditions at: WBKK (KOTA KINABALU IN, MY) observed 1330 UTC 19 March 2019
Temperature: 26.0°C (79°F)
Dewpoint: 25.0°C (77°F) [RH = 94%]
Pressure (altimeter): 29.85 inches Hg (1011.0 mb)
Winds: from the SE (130 degrees) at 5 MPH (4 knots; 2.1 m/s)
Visibility: 6 or more miles (10+ km)
Ceiling: 27000 feet AGL
Clouds: few clouds at 1400 feet AGL
scattered clouds at 4000 feet AGL
broken clouds at 27000 feet AGL
Weather: no significant weather observed at this time

METAR text: WBKK 191300Z 11003KT 9999 FEW014 SCT040 BKN270 26/25 Q1011 NOSIG
Conditions at: WBKK (KOTA KINABALU IN, MY) observed 1300 UTC 19 March 2019
Temperature: 26.0°C (79°F)
Dewpoint: 25.0°C (77°F) [RH = 94%]
Pressure (altimeter): 29.85 inches Hg (1011.0 mb)
Winds: from the ESE (110 degrees) at 3 MPH (3 knots; 1.5 m/s)
Visibility: 6 or more miles (10+ km)
Ceiling: 27000 feet AGL
Clouds: few clouds at 1400 feet AGL
scattered clouds at 4000 feet AGL
broken clouds at 27000 feet AGL
Weather: no significant weather observed at this time

METAR text: WBKK 191230Z 13003KT 9999 FEW014 SCT140 BKN270 26/25 Q1010 NOSIG
Conditions at: WBKK (KOTA KINABALU IN, MY) observed 1230 UTC 19 March 2019
Temperature: 26.0°C (79°F)
Dewpoint: 25.0°C (77°F) [RH = 94%]
Pressure (altimeter): 29.82 inches Hg (1010.0 mb)
Winds: from the SE (130 degrees) at 3 MPH (3 knots; 1.5 m/s)
Visibility: 6 or more miles (10+ km)
Ceiling: 27000 feet AGL
Clouds: few clouds at 1400 feet AGL
scattered clouds at 14000 feet AGL
broken clouds at 27000 feet AGL
Weather: no significant weather observed at this time

METAR text: WBKK 191200Z 11003KT 080V140 9999 FEW014 SCT140 BKN270 26/25 Q1010 NOSIG
Conditions at: WBKK (KOTA KINABALU IN, MY) observed 1200 UTC 19 March 2019
Temperature: 26.0°C (79°F)
Dewpoint: 25.0°C (77°F) [RH = 94%]
Pressure (altimeter): 29.82 inches Hg (1010.0 mb)
Winds: from the ESE (110 degrees) at 3 MPH (3 knots; 1.5 m/s)
Visibility: 6 or more miles (10+ km)
Ceiling: 27000 feet AGL
Clouds: few clouds at 1400 feet AGL
scattered clouds at 14000 feet AGL
broken clouds at 27000 feet AGL
Weather: no significant weather observed at this time

METAR text: WBKK 191130Z VRB02KT 9999 FEW014 SCT140 BKN270 26/25 Q1010 NOSIG
Conditions at: WBKK (KOTA KINABALU IN, MY) observed 1130 UTC 19 March 2019
Temperature: 26.0°C (79°F)
Dewpoint: 25.0°C (77°F) [RH = 94%]
Pressure (altimeter): 29.82 inches Hg (1010.0 mb)
Winds: variable direction winds at 2 MPH (2 knots; 1.0 m/s)
Visibility: 6 or more miles (10+ km)
Ceiling: 27000 feet AGL
Clouds: few clouds at 1400 feet AGL
scattered clouds at 14000 feet AGL
broken clouds at 27000 feet AGL
Weather: no significant weather observed at this time

METAR text: WBKK 191100Z 11004KT 080V150 9999 FEW014 SCT140 BKN270 26/25 Q1009 NOSIG
Conditions at: WBKK (KOTA KINABALU IN, MY) observed 1100 UTC 19 March 2019
Temperature: 26.0°C (79°F)
Dewpoint: 25.0°C (77°F) [RH = 94%]
Pressure (altimeter): 29.79 inches Hg (1009.0 mb)
Winds: from the ESE (110 degrees) at 5 MPH (4 knots; 2.1 m/s)
Visibility: 6 or more miles (10+ km)
Ceiling: 27000 feet AGL
Clouds: few clouds at 1400 feet AGL
scattered clouds at 14000 feet AGL
broken clouds at 27000 feet AGL
Weather: no significant weather observed at this time

METAR text: WBKK 191030Z 11001KT 9999 FEW014 FEW016CB SCT140 BKN270 27/25 Q1009 RERA NOSIG
Conditions at: WBKK (KOTA KINABALU IN, MY) observed 1030 UTC 19 March 2019
Temperature: 27.0°C (81°F)
Dewpoint: 25.0°C (77°F) [RH = 89%]
Pressure (altimeter): 29.79 inches Hg (1009.0 mb)
Winds: from the ESE (110 degrees) at 1 MPH (1 knots; 0.5 m/s)
Visibility: 6 or more miles (10+ km)
Ceiling: 27000 feet AGL
Clouds: few clouds at 1400 feet AGL
few clouds at 1600 feet AGL
scattered clouds at 14000 feet AGL
broken clouds at 27000 feet AGL
Weather: no significant weather observed at this time

METAR text: WBKK 191000Z 21003KT 8000 -RA FEW013 FEW016CB SCT035 BKN270 26/25 Q1009 RERA NOSIG
Conditions at: WBKK (KOTA KINABALU IN, MY) observed 1000 UTC 19 March 2019
Temperature: 26.0°C (79°F)
Dewpoint: 25.0°C (77°F) [RH = 94%]
Pressure (altimeter): 29.79 inches Hg (1009.0 mb)
Winds: from the SSW (210 degrees) at 3 MPH (3 knots; 1.5 m/s)
Visibility: 5 miles ( 8 km)
Ceiling: 27000 feet AGL
Clouds: few clouds at 1300 feet AGL
few clouds at 1600 feet AGL
scattered clouds at 3500 feet AGL
broken clouds at 27000 feet AGL
Weather: -RA  (light rain)

METAR text: WBKK 190930Z 15006KT 100V230 2000 RA FEW013 FEW016CB SCT035 BKN270 26/25 Q1008 NOSIG
Conditions at: WBKK (KOTA KINABALU IN, MY) observed 0930 UTC 19 March 2019
Temperature: 26.0°C (79°F)
Dewpoint: 25.0°C (77°F) [RH = 94%]
Pressure (altimeter): 29.76 inches Hg (1008.0 mb)
Winds: from the SSE (150 degrees) at 7 MPH (6 knots; 3.1 m/s)
Visibility: 1.24 miles (2.00 km)
Ceiling: 27000 feet AGL
Clouds: few clouds at 1300 feet AGL
few clouds at 1600 feet AGL
scattered clouds at 3500 feet AGL
broken clouds at 27000 feet AGL
Weather: RA  (moderate rain)

METAR text: WBKK 190900Z 02004KT 320V080 9999 FEW014 FEW016CB SCT040 BKN270 30/24 Q1008 TEMPO 5000 RA
Conditions at: WBKK (KOTA KINABALU IN, MY) observed 0900 UTC 19 March 2019
Temperature: 30.0°C (86°F)
Dewpoint: 24.0°C (75°F) [RH = 70%]
Pressure (altimeter): 29.76 inches Hg (1008.0 mb)
Winds: from the NNE (20 degrees) at 5 MPH (4 knots; 2.1 m/s)
Visibility: 6 or more miles (10+ km)
Ceiling: 27000 feet AGL
Clouds: few clouds at 1400 feet AGL
few clouds at 1600 feet AGL
scattered clouds at 4000 feet AGL
broken clouds at 27000 feet AGL
Weather: no significant weather observed at this time

METAR text: WBKK 190830Z 35004KT 260V050 9999 FEW014 FEW016CB SCT140 BKN270 31/25 Q1008 NOSIG
Conditions at: WBKK (KOTA KINABALU IN, MY) observed 0830 UTC 19 March 2019
Temperature: 31.0°C (88°F)
Dewpoint: 25.0°C (77°F) [RH = 71%]
Pressure (altimeter): 29.76 inches Hg (1008.0 mb)
Winds: from the N (350 degrees) at 5 MPH (4 knots; 2.1 m/s)
Visibility: 6 or more miles (10+ km)
Ceiling: 27000 feet AGL
Clouds: few clouds at 1400 feet AGL
few clouds at 1600 feet AGL
scattered clouds at 14000 feet AGL
broken clouds at 27000 feet AGL
Weather: no significant weather observed at this time

METAR text: WBKK 190800Z 33003KT 280V040 9999 FEW014 FEW016CB SCT140 BKN270 31/26 Q1008 NOSIG
Conditions at: WBKK (KOTA KINABALU IN, MY) observed 0800 UTC 19 March 2019
Temperature: 31.0°C (88°F)
Dewpoint: 26.0°C (79°F) [RH = 75%]
Pressure (altimeter): 29.76 inches Hg (1008.0 mb)
Winds: from the NNW (330 degrees) at 3 MPH (3 knots; 1.5 m/s)
Visibility: 6 or more miles (10+ km)
Ceiling: 27000 feet AGL
Clouds: few clouds at 1400 feet AGL
few clouds at 1600 feet AGL
scattered clouds at 14000 feet AGL
broken clouds at 27000 feet AGL
Weather: no significant weather observed at this time

METAR text: WBKK 190730Z VRB03KT 9999 TS FEW014 FEW016CB SCT140 BKN270 30/25 Q1008 NOSIG
Conditions at: WBKK (KOTA KINABALU IN, MY) observed 0730 UTC 19 March 2019
Temperature: 30.0°C (86°F)
Dewpoint: 25.0°C (77°F) [RH = 75%]
Pressure (altimeter): 29.76 inches Hg (1008.0 mb)
Winds: variable direction winds at 3 MPH (3 knots; 1.5 m/s)
Visibility: 6 or more miles (10+ km)
Ceiling: 27000 feet AGL
Clouds: few clouds at 1400 feet AGL
few clouds at 1600 feet AGL
scattered clouds at 14000 feet AGL
broken clouds at 27000 feet AGL
Weather: TS  (thunderstorm)

METAR text: WBKK 190700Z 32003KT 260V070 9999 TS FEW014 FEW016CB SCT140 BKN270 31/25 Q1008 TEMPO 7000 -TSRA
Conditions at: WBKK (KOTA KINABALU IN, MY) observed 0700 UTC 19 March 2019
Temperature: 31.0°C (88°F)
Dewpoint: 25.0°C (77°F) [RH = 71%]
Pressure (altimeter): 29.76 inches Hg (1008.0 mb)
Winds: from the NW (320 degrees) at 3 MPH (3 knots; 1.5 m/s)
Visibility: 6 or more miles (10+ km)
Ceiling: 27000 feet AGL
Clouds: few clouds at 1400 feet AGL
few clouds at 1600 feet AGL
scattered clouds at 14000 feet AGL
broken clouds at 27000 feet AGL
Weather: TS  (thunderstorm)

METAR text: WBKK 190630Z 33004KT 260V040 9999 TS FEW014 FEW016CB SCT140 BKN280 31/26 Q1008 TEMPO 7000 -TSRA
Conditions at: WBKK (KOTA KINABALU IN, MY) observed 0630 UTC 19 March 2019
Temperature: 31.0°C (88°F)
Dewpoint: 26.0°C (79°F) [RH = 75%]
Pressure (altimeter): 29.76 inches Hg (1008.0 mb)
Winds: from the NNW (330 degrees) at 5 MPH (4 knots; 2.1 m/s)
Visibility: 6 or more miles (10+ km)
Ceiling: 28000 feet AGL
Clouds: few clouds at 1400 feet AGL
few clouds at 1600 feet AGL
scattered clouds at 14000 feet AGL
broken clouds at 28000 feet AGL
Weather: TS  (thunderstorm)

METAR text: WBKK 190600Z 34004KT 280V040 9999 FEW014 FEW016CB SCT140 BKN280 30/26 Q1009 NOSIG
Conditions at: WBKK (KOTA KINABALU IN, MY) observed 0600 UTC 19 March 2019
Temperature: 30.0°C (86°F)
Dewpoint: 26.0°C (79°F) [RH = 79%]
Pressure (altimeter): 29.79 inches Hg (1009.0 mb)
Winds: from the NNW (340 degrees) at 5 MPH (4 knots; 2.1 m/s)
Visibility: 6 or more miles (10+ km)
Ceiling: 28000 feet AGL
Clouds: few clouds at 1400 feet AGL
few clouds at 1600 feet AGL
scattered clouds at 14000 feet AGL
broken clouds at 28000 feet AGL
Weather: no significant weather observed at this time

METAR text: WBKK 190530Z 31006KT 260V350 9999 FEW014 FEW016CB BKN280 33/26 Q1009 NOSIG
Conditions at: WBKK (KOTA KINABALU IN, MY) observed 0530 UTC 19 March 2019
Temperature: 33.0°C (91°F)
Dewpoint: 26.0°C (79°F) [RH = 67%]
Pressure (altimeter): 29.79 inches Hg (1009.0 mb)
Winds: from the NW (310 degrees) at 7 MPH (6 knots; 3.1 m/s)
Visibility: 6 or more miles (10+ km)
Ceiling: 28000 feet AGL
Clouds: few clouds at 1400 feet AGL
few clouds at 1600 feet AGL
broken clouds at 28000 feet AGL
Weather: no significant weather observed at this time

METAR text: WBKK 190500Z 29007KT 250V340 9999 FEW014 FEW016CB BKN280 33/27 Q1009 NOSIG
Conditions at: WBKK (KOTA KINABALU IN, MY) observed 0500 UTC 19 March 2019
Temperature: 33.0°C (91°F)
Dewpoint: 27.0°C (81°F) [RH = 71%]
Pressure (altimeter): 29.79 inches Hg (1009.0 mb)
Winds: from the WNW (290 degrees) at 8 MPH (7 knots; 3.6 m/s)
Visibility: 6 or more miles (10+ km)
Ceiling: 28000 feet AGL
Clouds: few clouds at 1400 feet AGL
few clouds at 1600 feet AGL
broken clouds at 28000 feet AGL
Weather: no significant weather observed at this time

METAR text: WBKK 190430Z 28009KT 250V310 9999 FEW015 BKN280 32/26 Q1010 NOSIG
Conditions at: WBKK (KOTA KINABALU IN, MY) observed 0430 UTC 19 March 2019
Temperature: 32.0°C (90°F)
Dewpoint: 26.0°C (79°F) [RH = 71%]
Pressure (altimeter): 29.82 inches Hg (1010.0 mb)
Winds: from the W (280 degrees) at 10 MPH (9 knots; 4.6 m/s)
Visibility: 6 or more miles (10+ km)
Ceiling: 28000 feet AGL
Clouds: few clouds at 1500 feet AGL
broken clouds at 28000 feet AGL
Weather: no significant weather observed at this time

METAR text: WBKK 190400Z 28008KT 240V310 9999 FEW015 BKN280 32/26 Q1011 NOSIG
Conditions at: WBKK (KOTA KINABALU IN, MY) observed 0400 UTC 19 March 2019
Temperature: 32.0°C (90°F)
Dewpoint: 26.0°C (79°F) [RH = 71%]
Pressure (altimeter): 29.85 inches Hg (1011.0 mb)
Winds: from the W (280 degrees) at 9 MPH (8 knots; 4.1 m/s)
Visibility: 6 or more miles (10+ km)
Ceiling: 28000 feet AGL
Clouds: few clouds at 1500 feet AGL
broken clouds at 28000 feet AGL
Weather: no significant weather observed at this time

METAR text: WBKK 190330Z 27007KT 230V300 9999 FEW015 BKN280 32/26 Q1011 NOSIG
Conditions at: WBKK (KOTA KINABALU IN, MY) observed 0330 UTC 19 March 2019
Temperature: 32.0°C (90°F)
Dewpoint: 26.0°C (79°F) [RH = 71%]
Pressure (altimeter): 29.85 inches Hg (1011.0 mb)
Winds: from the W (270 degrees) at 8 MPH (7 knots; 3.6 m/s)
Visibility: 6 or more miles (10+ km)
Ceiling: 28000 feet AGL
Clouds: few clouds at 1500 feet AGL
broken clouds at 28000 feet AGL
Weather: no significant weather observed at this time

METAR text: WBKK 190300Z 26007KT 210V320 9999 FEW015 BKN280 31/26 Q1011 NOSIG
Conditions at: WBKK (KOTA KINABALU IN, MY) observed 0300 UTC 19 March 2019
Temperature: 31.0°C (88°F)
Dewpoint: 26.0°C (79°F) [RH = 75%]
Pressure (altimeter): 29.85 inches Hg (1011.0 mb)
Winds: from the W (260 degrees) at 8 MPH (7 knots; 3.6 m/s)
Visibility: 6 or more miles (10+ km)
Ceiling: 28000 feet AGL
Clouds: few clouds at 1500 feet AGL
broken clouds at 28000 feet AGL
Weather: no significant weather observed at this time

METAR text: WBKK 190230Z 25005KT 200V320 9999 FEW015 SCT140 BKN280 31/26 Q1012 NOSIG
Conditions at: WBKK (KOTA KINABALU IN, MY) observed 0230 UTC 19 March 2019
Temperature: 31.0°C (88°F)
Dewpoint: 26.0°C (79°F) [RH = 75%]
Pressure (altimeter): 29.88 inches Hg (1012.0 mb)
Winds: from the WSW (250 degrees) at 6 MPH (5 knots; 2.6 m/s)
Visibility: 6 or more miles (10+ km)
Ceiling: 28000 feet AGL
Clouds: few clouds at 1500 feet AGL
scattered clouds at 14000 feet AGL
broken clouds at 28000 feet AGL
Weather: no significant weather observed at this time

METAR text: WBKK 190200Z 24005KT 190V290 9999 FEW015 SCT140 BKN280 31/25 Q1012 NOSIG
Conditions at: WBKK (KOTA KINABALU IN, MY) observed 0200 UTC 19 March 2019
Temperature: 31.0°C (88°F)
Dewpoint: 25.0°C (77°F) [RH = 71%]
Pressure (altimeter): 29.88 inches Hg (1012.0 mb)
Winds: from the WSW (240 degrees) at 6 MPH (5 knots; 2.6 m/s)
Visibility: 6 or more miles (10+ km)
Ceiling: 28000 feet AGL
Clouds: few clouds at 1500 feet AGL
scattered clouds at 14000 feet AGL
broken clouds at 28000 feet AGL
Weather: no significant weather observed at this time

METAR text: WBKK 190130Z 24004KT 190V290 9999 FEW015 SCT140 BKN270 30/25 Q1012 NOSIG
Conditions at: WBKK (KOTA KINABALU IN, MY) observed 0130 UTC 19 March 2019
Temperature: 30.0°C (86°F)
Dewpoint: 25.0°C (77°F) [RH = 75%]
Pressure (altimeter): 29.88 inches Hg (1012.0 mb)
Winds: from the WSW (240 degrees) at 5 MPH (4 knots; 2.1 m/s)
Visibility: 6 or more miles (10+ km)
Ceiling: 27000 feet AGL
Clouds: few clouds at 1500 feet AGL
scattered clouds at 14000 feet AGL
broken clouds at 27000 feet AGL
Weather: no significant weather observed at this time

METAR text: WBKK 190100Z 22004KT 200V360 9999 FEW015 SCT140 BKN270 30/25 Q1012 NOSIG
Conditions at: WBKK (KOTA KINABALU IN, MY) observed 0100 UTC 19 March 2019
Temperature: 30.0°C (86°F)
Dewpoint: 25.0°C (77°F) [RH = 75%]
Pressure (altimeter): 29.88 inches Hg (1012.0 mb)
Winds: from the SW (220 degrees) at 5 MPH (4 knots; 2.1 m/s)
Visibility: 6 or more miles (10+ km)
Ceiling: 27000 feet AGL
Clouds: few clouds at 1500 feet AGL
scattered clouds at 14000 feet AGL
broken clouds at 27000 feet AGL
Weather: no significant weather observed at this time

METAR text: WBKK 190030Z 13003KT 090V190 9999 FEW015 SCT140 BKN270 29/23 Q1012 NOSIG
Conditions at: WBKK (KOTA KINABALU IN, MY) observed 0030 UTC 19 March 2019
Temperature: 29.0°C (84°F)
Dewpoint: 23.0°C (73°F) [RH = 70%]
Pressure (altimeter): 29.88 inches Hg (1012.0 mb)
Winds: from the SE (130 degrees) at 3 MPH (3 knots; 1.5 m/s)
Visibility: 6 or more miles (10+ km)
Ceiling: 27000 feet AGL
Clouds: few clouds at 1500 feet AGL
scattered clouds at 14000 feet AGL
broken clouds at 27000 feet AGL
Weather: no significant weather observed at this time

METAR text: WBKK 190000Z 13004KT 080V170 9999 FEW015 SCT140 BKN270 28/23 Q1012 NOSIG
Conditions at: WBKK (KOTA KINABALU IN, MY) observed 0000 UTC 19 March 2019
Temperature: 28.0°C (82°F)
Dewpoint: 23.0°C (73°F) [RH = 74%]
Pressure (altimeter): 29.88 inches Hg (1012.0 mb)
Winds: from the SE (130 degrees) at 5 MPH (4 knots; 2.1 m/s)
Visibility: 6 or more miles (10+ km)
Ceiling: 27000 feet AGL
Clouds: few clouds at 1500 feet AGL
scattered clouds at 14000 feet AGL
broken clouds at 27000 feet AGL
Weather: no significant weather observed at this time

METAR text: WBKK 182330Z 12004KT 9999 FEW014 SCT140 BKN270 27/22 Q1011 NOSIG
Conditions at: WBKK (KOTA KINABALU IN, MY) observed 2330 UTC 18 March 2019
Temperature: 27.0°C (81°F)
Dewpoint: 22.0°C (72°F) [RH = 74%]
Pressure (altimeter): 29.85 inches Hg (1011.0 mb)
Winds: from the ESE (120 degrees) at 5 MPH (4 knots; 2.1 m/s)
Visibility: 6 or more miles (10+ km)
Ceiling: 27000 feet AGL
Clouds: few clouds at 1400 feet AGL
scattered clouds at 14000 feet AGL
broken clouds at 27000 feet AGL
Weather: no significant weather observed at this time

METAR text: WBKK 182300Z 12004KT 090V150 9999 FEW015 SCT140 BKN270 25/22 Q1011 NOSIG
Conditions at: WBKK (KOTA KINABALU IN, MY) observed 2300 UTC 18 March 2019
Temperature: 25.0°C (77°F)
Dewpoint: 22.0°C (72°F) [RH = 83%]
Pressure (altimeter): 29.85 inches Hg (1011.0 mb)
Winds: from the ESE (120 degrees) at 5 MPH (4 knots; 2.1 m/s)
Visibility: 6 or more miles (10+ km)
Ceiling: 27000 feet AGL
Clouds: few clouds at 1500 feet AGL
scattered clouds at 14000 feet AGL
broken clouds at 27000 feet AGL
Weather: no significant weather observed at this time

METAR text: WBKK 182230Z 11004KT 9999 FEW014 SCT140 BKN270 24/22 Q1010 NOSIG
Conditions at: WBKK (KOTA KINABALU IN, MY) observed 2230 UTC 18 March 2019
Temperature: 24.0°C (75°F)
Dewpoint: 22.0°C (72°F) [RH = 89%]
Pressure (altimeter): 29.82 inches Hg (1010.0 mb)
Winds: from the ESE (110 degrees) at 5 MPH (4 knots; 2.1 m/s)
Visibility: 6 or more miles (10+ km)
Ceiling: 27000 feet AGL
Clouds: few clouds at 1400 feet AGL
scattered clouds at 14000 feet AGL
broken clouds at 27000 feet AGL
Weather: no significant weather observed at this time

METAR text: WBKK 182200Z 12005KT 9999 FEW014 SCT140 BKN270 24/22 Q1010 NOSIG
Conditions at: WBKK (KOTA KINABALU IN, MY) observed 2200 UTC 18 March 2019
Temperature: 24.0°C (75°F)
Dewpoint: 22.0°C (72°F) [RH = 89%]
Pressure (altimeter): 29.82 inches Hg (1010.0 mb)
Winds: from the ESE (120 degrees) at 6 MPH (5 knots; 2.6 m/s)
Visibility: 6 or more miles (10+ km)
Ceiling: 27000 feet AGL
Clouds: few clouds at 1400 feet AGL
scattered clouds at 14000 feet AGL
broken clouds at 27000 feet AGL
Weather: no significant weather observed at this time

METAR text: WBKK 182130Z 12004KT 9999 FEW014 SCT140 BKN270 25/22 Q1009 NOSIG
Conditions at: WBKK (KOTA KINABALU IN, MY) observed 2130 UTC 18 March 2019
Temperature: 25.0°C (77°F)
Dewpoint: 22.0°C (72°F) [RH = 83%]
Pressure (altimeter): 29.79 inches Hg (1009.0 mb)
Winds: from the ESE (120 degrees) at 5 MPH (4 knots; 2.1 m/s)
Visibility: 6 or more miles (10+ km)
Ceiling: 27000 feet AGL
Clouds: few clouds at 1400 feet AGL
scattered clouds at 14000 feet AGL
broken clouds at 27000 feet AGL
Weather: no significant weather observed at this time

METAR text: WBKK 182100Z 12003KT 9999 FEW014 SCT140 BKN270 25/22 Q1009 NOSIG
Conditions at: WBKK (KOTA KINABALU IN, MY) observed 2100 UTC 18 March 2019
Temperature: 25.0°C (77°F)
Dewpoint: 22.0°C (72°F) [RH = 83%]
Pressure (altimeter): 29.79 inches Hg (1009.0 mb)
Winds: from the ESE (120 degrees) at 3 MPH (3 knots; 1.5 m/s)
Visibility: 6 or more miles (10+ km)
Ceiling: 27000 feet AGL
Clouds: few clouds at 1400 feet AGL
scattered clouds at 14000 feet AGL
broken clouds at 27000 feet AGL
Weather: no significant weather observed at this time

METAR text: WBKK 182030Z 13003KT 9999 FEW014 SCT140 BKN270 25/22 Q1009 NOSIG
Conditions at: WBKK (KOTA KINABALU IN, MY) observed 2030 UTC 18 March 2019
Temperature: 25.0°C (77°F)
Dewpoint: 22.0°C (72°F) [RH = 83%]
Pressure (altimeter): 29.79 inches Hg (1009.0 mb)
Winds: from the SE (130 degrees) at 3 MPH (3 knots; 1.5 m/s)
Visibility: 6 or more miles (10+ km)
Ceiling: 27000 feet AGL
Clouds: few clouds at 1400 feet AGL
scattered clouds at 14000 feet AGL
broken clouds at 27000 feet AGL
Weather: no significant weather observed at this time

Forecast for: WBKK (KOTA KINABALU IN, MY)
Text: TAF WBKK 200500Z 2006/2106 29005KT 9999 FEW015
Forecast period: 0600 UTC 20 March 2019 to 0600 UTC 21 March 2019
Forecast type: FROM: standard forecast or significant change
Winds: from the WNW (290 degrees) at 6 MPH (5 knots; 2.6 m/s)
Visibility: 6 or more miles 10+ km)
Ceiling: at least 12,000 feet AGL
Clouds: few clouds at 1500 feet AGL
Weather: no significant weather forecast for this period
Text: TEMPO 2006/2010 3000 TSRA FEW014 FEW016CB SCT030
Forecast period: 0600 to 1000 UTC 20 March 2019
Forecast type: TEMPORARY: The following changes expected for less than half the time period
Visibility: 1.86 miles (2.99 km)
Ceiling: at least 12,000 feet AGL
Clouds: few clouds at 1400 feet AGL
few clouds at 1600 feet AGL
scattered clouds at 3000 feet AGL
Weather: TSRA  (rain associated with thunderstorm(s))